首页
METAR-TAF:

METAR-TAF

机场 :

McCall Municipal Airport

McCall, 爱达荷州, 美国

纬度: 44-53-00N, 经度: 116-05-58W, 海拔: 1530米

当前天气观测

该预报发布于51分钟前的22:51 UTC
风速9节,风向西南
温度 21°C
湿度 33%
气压 1018 hPa
能見度: 16.1公里
天空无云

METAR: KMYL 032251Z AUTO 23009KT 10SM CLR 21/04 A3006 RMK AO2 SLP147 T02110039

时间: 17:42 (23:42 UTC)

预报

该预报发布于6小时和22分钟前的17:20 UTC
预报有效从03日的 18点(UTC)到 04日的 18点(UTC)
风速6节,风向多变
能見度: 10公里
散云层高于20000英尺

TAF: KMYL 031720Z 0318/0418 VRB06KT P6SM SCT200

超过4000个机场的气象观测和天气预报(METAR&TAF报告)。

可查询的气象台以黄色和红色小点在地图上表示。

将鼠标移到小点上方,可查看气象台名称。

然后点击查看天气观测和预报。

如需切换地图:点击带黑十字的绿色按钮放大地图;点击带横线的绿色按钮缩小地图;或者点击绿色箭头查看邻近地区的地图。


METAR-TAF: